WetterOnline ( https://www.wetteronline.de )

Wetter aktuell Schönsee

Aktuelles Wetter: Waldmünchen (499m)

6-stündlich | Neueste Meldungen
Ortszeit Temperatur Wetter
Do, 25.04. 2:00 11.1° C leicht bewölkt
Mi, 24.04. 20:00 20.0° C bewölkt
Mi, 24.04. 14:00 20.9° C leicht bewölkt
Mi, 24.04. 8:00 10.2° C leicht bewölkt
Mi, 24.04. 2:00 9.3° C bedeckt
Di, 23.04. 20:00 12.7° C bedeckt
Di, 23.04. 14:00 16.0° C leicht bewölkt
Di, 23.04. 8:00 9.9° C fast wolkenlos
Ortszeit Temperatur Wetter
Do, 25.04. 6:00 4.4° C wolkenlos
Do, 25.04. 5:30 5.1° C fast wolkenlos
Do, 25.04. 5:20 5.1° C fast wolkenlos
Do, 25.04. 5:10 4.7° C fast wolkenlos
Do, 25.04. 5:00 5.2° C wolkenlos
Do, 25.04. 4:50 5.2° C wolkenlos
Do, 25.04. 4:30 6.1° C wolkenlos
Do, 25.04. 4:00 7.6° C wolkenlos
Do, 25.04. 3:30 7.1° C wolkenlos
Do, 25.04. 3:00 8.7° C wolkenlos
Do, 25.04. 2:30 9.7° C leicht bewölkt
Ortszeit Relative Feuchte Sichtweite
Do, 25.04. 2:00 67% 65 km
Mi, 24.04. 20:00 53% 35 km
Mi, 24.04. 14:00 46% 16 km
Mi, 24.04. 8:00 78% 15 km
Mi, 24.04. 2:00 81% 15 km
Di, 23.04. 20:00 67% 19 km
Di, 23.04. 14:00 54% 11 km
Di, 23.04. 8:00 69% 16 km
Ortszeit Relative Feuchte Sichtweite
Do, 25.04. 6:00 91% 60 km
Do, 25.04. 5:30 90% 65 km
Do, 25.04. 5:20 90% -
Do, 25.04. 5:10 90% -
Do, 25.04. 5:00 90% 65 km
Do, 25.04. 4:50 90% -
Do, 25.04. 4:30 85% 65 km
Do, 25.04. 4:00 84% 60 km
Do, 25.04. 3:30 85% 60 km
Do, 25.04. 3:00 78% 60 km
Do, 25.04. 2:30 74% 55 km
Ortszeit Niederschlagsmenge Niederschlagsart
Do, 25.04. 2:00 0.0 l/m2 in 6 Std. -
Mi, 24.04. 20:00 0.0 l/m2 in 12 Std. -
Mi, 24.04. 14:00 0.0 l/m2 in 6 Std. -
Mi, 24.04. 8:00 0.0 l/m2 in 12 Std. -
Mi, 24.04. 2:00 0.0 l/m2 in 6 Std. -
Di, 23.04. 20:00 0.0 l/m2 in 12 Std. -
Di, 23.04. 14:00 0.0 l/m2 in 6 Std. -
Di, 23.04. 8:00 0.0 l/m2 in 12 Std. -
Ortszeit Niederschlagsmenge Niederschlagsart
Do, 25.04. 6:00 0.0 l/m2 in 1 Std. -
Do, 25.04. 5:30 0.0 l/m2 in 1 Std. -
Do, 25.04. 5:20 keine Meldung -
Do, 25.04. 5:10 keine Meldung -
Do, 25.04. 5:00 0.0 l/m2 in 1 Std. -
Do, 25.04. 4:50 keine Meldung -
Do, 25.04. 4:30 0.0 l/m2 in 1 Std. -
Do, 25.04. 4:00 0.0 l/m2 in 1 Std. -
Do, 25.04. 3:30 0.0 l/m2 in 1 Std. -
Do, 25.04. 3:00 0.0 l/m2 in 1 Std. -
Do, 25.04. 2:30 0.0 l/m2 in 1 Std. -
Ortszeit Stärke Spitze Richtung
km/h Bft. km/h Grad Sektor
Do, 25.04. 2:00 6 1 56 160° S
Mi, 24.04. 20:00 14 3 40 110° O
Mi, 24.04. 14:00 18 3 32 30° NO
Mi, 24.04. 8:00 19 3 31 30° NO
Mi, 24.04. 2:00 11 2 29 50° NO
Di, 23.04. 20:00 19 3 46 60° NO
Di, 23.04. 14:00 33 5 52 70° O
Di, 23.04. 8:00 28 4 46 50° NO
Ortszeit Stärke Spitze Richtung
km/h Bft. km/h Grad Sektor
Do, 25.04. 6:00 4 1 7 10° N
Do, 25.04. 5:30 4 1 7 70° O
Do, 25.04. 5:20 4 1 - 70° O
Do, 25.04. 5:10 4 1 - 90° O
Do, 25.04. 5:00 4 1 7 100° O
Do, 25.04. 4:50 4 1 - 100° O
Do, 25.04. 4:30 4 1 7 40° NO
Do, 25.04. 4:00 4 1 7 120° SO
Do, 25.04. 3:30 2 1 6 90° O
Do, 25.04. 3:00 4 1 7 120° SO
Do, 25.04. 2:30 2 1 9 150° SO
Ortszeit Untergrenze Bedeckung Gattung
total tief tief mittel hoch
Do, 25.04. 2:00 5700 m 4/8 3/8 - - -
Mi, 24.04. 20:00 6000 m 8/8 6/8 - - -
Mi, 24.04. 14:00 9000 m 6/8 0/8 - - -
Mi, 24.04. 8:00 8700 m 5/8 0/8 - - -
Mi, 24.04. 2:00 4800 m 8/8 8/8 - - -
Di, 23.04. 20:00 1500 m 8/8 8/8 - - -
Di, 23.04. 14:00 8400 m 6/8 0/8 - - -
Di, 23.04. 8:00 9000 m 2/8 0/8 - - -
Ortszeit Bedeckungsgrad in Achtel und Wolkenuntergrenze
Do, 25.04. 6:00 keine Wolken
Do, 25.04. 5:30 1(8100m)
Do, 25.04. 5:20 1(8100m)
Do, 25.04. 5:10 2(8100m)
Do, 25.04. 5:00 2(8100m)
Do, 25.04. 4:50 keine Wolken
Do, 25.04. 4:30 keine Wolken
Do, 25.04. 4:00 keine Wolken
Do, 25.04. 3:30 keine Wolken
Do, 25.04. 3:00 keine Wolken
Do, 25.04. 2:30 5(7800m)
Ortszeit Luftdruck NN (hPa) Tendenz (hPa in 3 Std.)
Do, 25.04. 2:00 1011 + 4,0
Mi, 24.04. 20:00 1003 - 0,4
Mi, 24.04. 14:00 1004 - 0,5
Mi, 24.04. 8:00 1006 + 1,2
Mi, 24.04. 2:00 1005 + 0,1
Di, 23.04. 20:00 1003 + 0,7
Di, 23.04. 14:00 1002 - 0,8
Di, 23.04. 8:00 1004 - 0,6
Ortszeit Luftdruck NN (hPa) Tendenz (hPa in 3 Std.)
Do, 25.04. 6:00 1014 + 0,3
Do, 25.04. 5:30 1013 + 0,3
Do, 25.04. 5:20 1013 keine Meldung
Do, 25.04. 5:10 1013 keine Meldung
Do, 25.04. 5:00 1013 + 0,5
Do, 25.04. 4:50 1013 keine Meldung
Do, 25.04. 4:30 1013 + 0,9
Do, 25.04. 4:00 1013 + 0,9
Do, 25.04. 3:30 1013 + 1,3
Do, 25.04. 3:00 1012 + 2,0
Do, 25.04. 2:30 1012 + 3,3
Ortszeit Schneehöhe (cm)
Do, 25.04. 2:00 0
Mi, 24.04. 20:00 0
Mi, 24.04. 14:00 0
Mi, 24.04. 8:00 0
Mi, 24.04. 2:00 0
Di, 23.04. 20:00 0
Di, 23.04. 14:00 0
Di, 23.04. 8:00 0
Ortszeit Schneehöhe (cm)
Do, 25.04. 6:00 0
Do, 25.04. 5:30 0
Do, 25.04. 5:20 0
Do, 25.04. 5:10 0
Do, 25.04. 5:00 0
Do, 25.04. 4:50 0
Do, 25.04. 4:30 0
Do, 25.04. 4:00 0
Do, 25.04. 3:30 0
Do, 25.04. 3:00 0
Do, 25.04. 2:30 0
Link zu dieser Seite / Seite empfehlen

Das Wetter in ...